Aeroporto :
LOGIN :

Iscrizione | Disclaimer

   EN    FR    IT 

 










Sommario :    VFR   VFR Marginale   IFR   IFR Intensivo   IFR Molto Intensivo
Visibilità : 
Base nubi : 
>= 8 km
>= 3000ft
5 / 8 km
1000 / 3000 ft
1500m / 5 km
500 / 1000 ft
800 / 1500m
200 / 500 ft
< 800m
< 200 ft
Simboli :   Temporali  Nebbia  Neve Forte  Precipitazioni Forti  Vento > 20 kt
SIGMETs :   Varie  Temporali  Ghiacco  Turbolenza  Onda orograficha  Ceneri Vulcaniche






- Altitudine del aeroporto : 505 ft
- Codice IATA : SXB


LFST - Strasbourg

ULTIMO METAR :
  • 090730Z AUTO 03007KT 350V080 CAVOK 23/09 Q1024 NOSIG

METARs OBSOLETI :
  • 090700Z AUTO 03007KT 330V070 CAVOK 22/08 Q1023 NOSIG
  • 090630Z AUTO 02007KT CAVOK 21/08 Q1023 NOSIG
  • 090600Z AUTO 01006KT CAVOK 20/08 Q1023 NOSIG
  • 090530Z AUTO 33005KT CAVOK 17/09 Q1023 NOSIG

TAF TAF LFST
Valido dal 09 a 06 ore il 10 a 06 ore UTC


090500Z 0906/1006 36006KT CAVOK
BECMG 0909/0912 06010KT
BECMG 0921/0924 36005KT



MetMap, La meteo Aeronautica in un colpo d'occhio ! - Copyright ORBIFLY Dicembre 2007 - Disclaimer

ORBIFLY MET'MAP TEAM :

Programmazione e sviluppo : Alexandra Zaïnal
Concezione : Baudouin d'Aumeries
Supporto tecnico e logistico : Manuel Goepfert
Aiuto : Marc-Olivier Méhu
Aiuto per la traduzione : Arnaldo La Scala




FONTI E CREDITI :

   NOAA